createdAt,value
2019-05-12T00:01:13.396Z,6.18
2019-05-12T00:02:48.613Z,6.17
2019-05-12T00:04:23.527Z,6.13
2019-05-12T00:05:58.176Z,6.19
2019-05-12T00:07:32.975Z,6.19
2019-05-12T00:09:08.413Z,6.18
2019-05-12T00:10:43.438Z,6.20
2019-05-12T00:12:18.501Z,6.07
2019-05-12T00:13:53.454Z,6.09
2019-05-12T00:15:28.241Z,6.06
2019-05-12T00:17:04.331Z,5.97
2019-05-12T00:18:38.998Z,5.95
2019-05-12T00:20:14.022Z,6.07
2019-05-12T00:21:48.667Z,5.98
2019-05-12T00:23:27.749Z,5.91
2019-05-12T00:25:00.932Z,5.93
2019-05-12T00:26:38.189Z,5.98
2019-05-12T00:28:12.306Z,5.85
2019-05-12T00:29:48.531Z,5.93
2019-05-12T00:31:23.284Z,5.87
2019-05-12T00:32:58.183Z,5.87
2019-05-12T00:34:32.890Z,5.89
2019-05-12T00:36:08.098Z,5.83
2019-05-12T00:37:42.758Z,5.71
2019-05-12T00:39:19.117Z,5.79
2019-05-12T00:40:53.910Z,5.84
2019-05-12T00:42:28.916Z,5.87
2019-05-12T00:44:03.938Z,5.75
2019-05-12T00:45:39.209Z,5.71
2019-05-12T00:47:13.828Z,5.82
2019-05-12T00:48:48.625Z,5.85
2019-05-12T00:50:23.245Z,5.82
2019-05-12T00:51:58.759Z,5.67
2019-05-12T00:53:39.669Z,5.77
2019-05-12T00:55:10.433Z,5.62
2019-05-12T00:56:45.081Z,5.66
2019-05-12T00:58:19.894Z,5.68
2019-05-12T00:59:54.516Z,5.60
2019-05-12T01:01:29.339Z,5.68
2019-05-12T01:03:03.988Z,5.62
2019-05-12T01:04:38.844Z,5.64
2019-05-12T01:06:13.595Z,5.58
2019-05-12T01:07:51.106Z,5.55
2019-05-12T01:09:24.874Z,5.51
2019-05-12T01:10:59.679Z,5.55
2019-05-12T01:12:34.701Z,5.57
2019-05-12T01:14:09.533Z,5.54
2019-05-12T01:15:44.165Z,5.55
2019-05-12T01:17:19.033Z,5.54
2019-05-12T01:18:53.693Z,5.36
2019-05-12T01:20:28.699Z,5.55
2019-05-12T01:22:03.488Z,5.56
2019-05-12T01:23:53.421Z,5.57
2019-05-12T01:25:14.859Z,5.50
2019-05-12T01:26:49.684Z,5.43
2019-05-12T01:28:24.319Z,5.37
2019-05-12T01:29:59.146Z,5.42
2019-05-12T01:31:37.867Z,5.30
2019-05-12T01:33:12.738Z,5.28
2019-05-12T01:34:48.688Z,5.38
2019-05-12T01:36:23.681Z,5.31
2019-05-12T01:38:01.365Z,5.44
2019-05-12T01:39:34.839Z,5.37
2019-05-12T01:41:09.461Z,5.37
2019-05-12T01:42:44.382Z,5.39
2019-05-12T01:44:19.006Z,5.33
2019-05-12T01:45:53.839Z,5.28
2019-05-12T01:47:29.118Z,5.23
2019-05-12T01:49:05.104Z,5.27
2019-05-12T01:50:39.829Z,5.22
2019-05-12T01:52:14.822Z,5.29
2019-05-12T01:53:49.465Z,5.22
2019-05-12T01:55:24.274Z,5.17
2019-05-12T01:56:58.936Z,5.29
2019-05-12T01:58:33.750Z,5.23
2019-05-12T02:00:10.815Z,5.17
2019-05-12T02:01:45.649Z,5.21
2019-05-12T02:03:20.268Z,5.21
2019-05-12T02:05:08.271Z,5.14
2019-05-12T02:06:42.200Z,5.18
2019-05-12T02:08:22.410Z,5.11
2019-05-12T02:09:58.457Z,5.11
2019-05-12T02:11:33.317Z,5.14
2019-05-12T02:13:08.214Z,5.12
2019-05-12T02:14:43.110Z,5.12
2019-05-12T02:16:18.825Z,4.97
2019-05-12T02:17:53.960Z,4.98
2019-05-12T02:19:28.600Z,4.89
2019-05-12T02:21:03.429Z,4.96
2019-05-12T02:22:38.853Z,4.93
2019-05-12T02:24:26.346Z,4.85
2019-05-12T02:25:50.232Z,4.94
2019-05-12T02:27:25.047Z,4.88
2019-05-12T02:28:59.749Z,4.78
2019-05-12T02:30:34.694Z,4.73
2019-05-12T02:32:09.408Z,4.80
2019-05-12T02:33:44.695Z,4.74
2019-05-12T02:35:19.609Z,4.82
2019-05-12T02:36:55.584Z,4.78
2019-05-12T02:38:30.456Z,4.83
2019-05-12T02:40:07.047Z,4.72
2019-05-12T02:41:44.716Z,4.68
2019-05-12T02:43:18.288Z,4.72
2019-05-12T02:44:55.194Z,4.73
2019-05-12T02:46:29.540Z,4.76
2019-05-12T02:48:05.281Z,4.62
2019-05-12T02:49:40.529Z,4.60
2019-05-12T02:51:16.324Z,4.62
2019-05-12T02:52:54.609Z,4.62
2019-05-12T02:54:47.034Z,4.56
2019-05-12T02:56:05.410Z,4.39
2019-05-12T02:57:40.781Z,4.43
2019-05-12T02:59:16.568Z,4.37
2019-05-12T03:00:54.785Z,4.30
2019-05-12T03:02:29.791Z,4.29
2019-05-12T03:04:06.002Z,4.15
2019-05-12T03:05:44.185Z,4.19
2019-05-12T03:07:18.796Z,4.27
2019-05-12T03:08:55.056Z,4.29
2019-05-12T03:10:29.913Z,4.15
2019-05-12T03:12:06.077Z,4.22
2019-05-12T03:13:40.852Z,4.26
2019-05-12T03:15:15.758Z,4.07
2019-05-12T03:16:50.422Z,4.08
2019-05-12T03:18:25.693Z,4.20
2019-05-12T03:20:00.362Z,4.28
2019-05-12T03:21:35.825Z,4.13
2019-05-12T03:23:10.720Z,4.00
2019-05-12T03:24:45.569Z,4.08
2019-05-12T03:26:20.195Z,4.08
2019-05-12T03:27:55.041Z,4.18
2019-05-12T03:29:29.668Z,4.00
2019-05-12T03:31:07.828Z,4.09
2019-05-12T03:32:46.708Z,4.02
2019-05-12T03:34:19.448Z,4.04
2019-05-12T03:36:00.192Z,4.03
2019-05-12T03:37:31.307Z,3.89
2019-05-12T03:39:08.143Z,3.96
2019-05-12T03:40:45.073Z,3.96
2019-05-12T03:42:19.409Z,3.94
2019-05-12T03:43:54.993Z,4.11
2019-05-12T03:45:29.769Z,4.06
2019-05-12T03:47:05.197Z,4.06
2019-05-12T03:48:40.031Z,4.07
2019-05-12T03:50:15.112Z,4.04
2019-05-12T03:51:49.863Z,4.12
2019-05-12T03:53:25.125Z,4.11
2019-05-12T03:54:59.848Z,4.11
2019-05-12T03:56:35.116Z,4.21
2019-05-12T04:00:50.562Z,4.13
2019-05-12T04:02:25.397Z,4.39
2019-05-12T04:04:00.039Z,4.37
2019-05-12T04:05:35.629Z,4.27
2019-05-12T04:07:10.416Z,4.23
2019-05-12T04:08:45.799Z,4.31
2019-05-12T04:10:20.561Z,4.38
2019-05-12T04:11:55.388Z,4.54
2019-05-12T04:13:30.107Z,4.51
2019-05-12T04:15:05.483Z,4.55
2019-05-12T04:16:40.222Z,4.55
2019-05-12T04:18:16.073Z,4.64
2019-05-12T04:19:51.396Z,4.67
2019-05-12T04:21:26.340Z,4.74
2019-05-12T04:23:00.961Z,4.80
2019-05-12T04:24:36.026Z,4.87
2019-05-12T04:26:15.760Z,4.81
2019-05-12T04:27:47.262Z,5.00
2019-05-12T04:29:25.051Z,5.12
2019-05-12T04:30:58.445Z,5.19
2019-05-12T04:32:35.703Z,6.18
2019-05-12T04:34:14.298Z,8.73
2019-05-12T04:35:45.987Z,8.26
2019-05-12T04:37:20.817Z,9.68
2019-05-12T04:38:55.910Z,10.66
2019-05-12T04:40:30.735Z,10.87
2019-05-12T04:42:05.573Z,12.90
2019-05-12T04:43:40.631Z,12.48
2019-05-12T04:45:16.045Z,13.95
2019-05-12T04:46:51.307Z,13.82
2019-05-12T04:48:26.165Z,14.22
2019-05-12T04:50:01.281Z,15.02
2019-05-12T04:51:36.010Z,15.27
2019-05-12T04:53:14.192Z,15.04
2019-05-12T04:54:47.386Z,16.50
2019-05-12T04:56:24.904Z,16.50
2019-05-12T04:57:58.770Z,16.58
2019-05-12T04:59:34.573Z,16.49
2019-05-12T05:01:09.514Z,16.49
2019-05-12T05:02:45.676Z,16.25
2019-05-12T05:04:20.495Z,17.98
2019-05-12T05:05:55.691Z,16.81
2019-05-12T05:07:30.342Z,16.37
2019-05-12T05:09:08.071Z,17.17
2019-05-12T05:10:44.387Z,16.46
2019-05-12T05:12:19.726Z,14.09
2019-05-12T05:13:54.964Z,12.26
2019-05-12T05:15:30.373Z,10.90
2019-05-12T05:17:05.852Z,10.90
2019-05-12T05:18:43.775Z,12.14
2019-05-12T05:20:17.772Z,11.77
2019-05-12T05:21:54.157Z,12.09
2019-05-12T05:23:28.886Z,11.14
2019-05-12T05:25:04.426Z,10.63
2019-05-12T05:26:39.103Z,10.61
2019-05-12T05:28:14.884Z,10.33
2019-05-12T05:29:49.491Z,9.77
2019-05-12T05:31:24.716Z,9.12
2019-05-12T05:32:59.383Z,9.36
2019-05-12T05:34:34.608Z,9.36
2019-05-12T05:36:15.128Z,9.39
2019-05-12T05:37:46.612Z,8.90
2019-05-12T05:39:21.325Z,9.86
2019-05-12T05:40:59.792Z,14.05
2019-05-12T05:42:35.526Z,15.47
2019-05-12T05:44:09.796Z,16.35
2019-05-12T05:45:44.833Z,16.35
2019-05-12T05:47:25.679Z,21.54
2019-05-12T05:48:56.399Z,22.22
2019-05-12T05:50:31.600Z,19.95
2019-05-12T05:52:06.235Z,20.43
2019-05-12T05:53:41.446Z,20.18
2019-05-12T05:55:20.142Z,20.18
2019-05-12T05:56:59.650Z,23.32
2019-05-12T05:58:29.969Z,21.58
2019-05-12T06:00:07.126Z,23.56
2019-05-12T06:01:46.910Z,21.99
2019-05-12T06:03:27.785Z,26.11
2019-05-12T06:04:56.793Z,24.17
2019-05-12T06:06:34.049Z,24.48
2019-05-12T06:08:14.367Z,24.15
2019-05-12T06:09:45.203Z,25.30
2019-05-12T06:11:26.563Z,27.50
2019-05-12T06:12:56.761Z,22.13
2019-05-12T06:14:34.045Z,25.21
2019-05-12T06:16:11.728Z,24.36
2019-05-12T06:17:44.789Z,27.42
2019-05-12T06:19:23.154Z,27.15
2019-05-12T06:20:56.393Z,27.72
2019-05-12T06:22:33.805Z,25.58
2019-05-12T06:24:15.655Z,27.87
2019-05-12T06:25:51.411Z,28.12
2019-05-12T06:27:21.362Z,27.35
2019-05-12T06:28:57.882Z,26.29
2019-05-12T06:30:35.797Z,26.77
2019-05-12T06:32:11.013Z,26.28
2019-05-12T06:33:46.200Z,28.55
2019-05-12T06:35:21.420Z,28.02
2019-05-12T06:36:57.445Z,27.79
2019-05-12T06:38:37.207Z,26.42
2019-05-12T06:40:10.307Z,28.62
2019-05-12T06:41:45.494Z,28.43
2019-05-12T06:43:20.174Z,26.16
2019-05-12T06:44:58.192Z,28.49
2019-05-12T06:46:34.085Z,29.94
2019-05-12T06:48:08.661Z,29.32
2019-05-12T06:49:43.981Z,28.82
2019-05-12T06:51:23.764Z,28.91
2019-05-12T06:52:55.664Z,30.71
2019-05-12T06:54:30.892Z,29.80
2019-05-12T06:56:09.470Z,31.47
2019-05-12T06:57:48.110Z,26.00
2019-05-12T06:59:18.840Z,26.16
2019-05-12T07:00:54.128Z,27.24
2019-05-12T07:02:30.307Z,26.87
2019-05-12T07:04:09.984Z,26.79
2019-05-12T07:05:45.219Z,27.68
2019-05-12T07:07:19.876Z,28.40
2019-05-12T07:09:03.562Z,27.55
2019-05-12T07:10:40.489Z,27.83
2019-05-12T07:12:08.775Z,25.07
2019-05-12T07:13:43.981Z,23.25
2019-05-12T07:15:18.674Z,26.89
2019-05-12T07:17:01.755Z,26.76
2019-05-12T07:18:36.986Z,29.72
2019-05-12T07:20:10.151Z,26.04
2019-05-12T07:21:44.766Z,30.65
2019-05-12T07:23:25.868Z,20.40
2019-05-12T07:24:56.380Z,18.52
2019-05-12T07:26:33.758Z,25.33
2019-05-12T07:28:08.384Z,24.47
2019-05-12T07:29:43.770Z,24.01
2019-05-12T07:31:18.776Z,21.13
2019-05-12T07:32:59.356Z,26.68
2019-05-12T07:34:30.635Z,22.56
2019-05-12T07:36:06.635Z,18.51
2019-05-12T07:37:43.600Z,19.70
2019-05-12T07:39:20.586Z,16.93
2019-05-12T07:41:00.398Z,17.70
2019-05-12T07:42:39.380Z,16.92
2019-05-12T07:44:09.365Z,17.98
2019-05-12T07:45:46.912Z,17.51
2019-05-12T07:47:27.231Z,16.45
2019-05-12T07:48:58.494Z,19.40
2019-05-12T07:50:34.475Z,25.90
2019-05-12T07:52:10.022Z,22.83
2019-05-12T07:53:46.837Z,22.37
2019-05-12T07:55:23.600Z,21.58
2019-05-12T07:57:05.378Z,16.96
2019-05-12T07:58:35.789Z,23.60
2019-05-12T08:00:21.056Z,18.96
2019-05-12T08:01:52.061Z,21.94
2019-05-12T08:03:25.224Z,17.21
2019-05-12T08:05:00.579Z,16.68
2019-05-12T08:06:41.730Z,15.28
2019-05-12T08:08:14.287Z,15.08
2019-05-12T08:09:48.530Z,13.86
2019-05-12T08:11:28.704Z,15.42
2019-05-12T08:13:00.912Z,23.04
2019-05-12T08:14:36.251Z,26.46
2019-05-12T08:16:10.893Z,24.75
2019-05-12T08:17:49.271Z,24.92
2019-05-12T08:19:25.505Z,25.83
2019-05-12T08:21:00.162Z,19.73
2019-05-12T08:22:59.684Z,18.21
2019-05-12T08:24:35.394Z,17.58
2019-05-12T08:26:18.401Z,18.99
2019-05-12T08:27:50.273Z,24.56
2019-05-12T08:29:24.310Z,25.73
2019-05-12T08:31:00.698Z,24.56
2019-05-12T08:32:35.353Z,24.56
2019-05-12T08:34:10.555Z,21.59
2019-05-12T08:35:45.211Z,19.39
2019-05-12T08:37:20.405Z,17.48
2019-05-12T08:38:55.060Z,18.62
2019-05-12T08:40:30.338Z,18.35
2019-05-12T08:42:05.192Z,21.78
2019-05-12T08:43:45.833Z,16.94
2019-05-12T08:45:27.365Z,16.07
2019-05-12T08:46:56.498Z,17.50
2019-05-12T08:48:30.116Z,16.82
2019-05-12T08:50:05.581Z,19.98
2019-05-12T08:51:40.256Z,16.79
2019-05-12T08:53:20.726Z,18.90
2019-05-12T08:54:53.627Z,17.82
2019-05-12T08:56:28.930Z,18.16
2019-05-12T08:58:03.898Z,18.16
2019-05-12T08:59:39.272Z,19.02
2019-05-12T09:01:14.049Z,19.25
2019-05-12T09:02:50.652Z,17.40
2019-05-12T09:04:25.429Z,16.55
2019-05-12T09:06:00.812Z,16.60
2019-05-12T09:07:39.723Z,15.79
2019-05-12T09:09:13.960Z,16.09
2019-05-12T09:10:51.886Z,17.13
2019-05-12T09:12:25.596Z,18.42
2019-05-12T09:14:03.617Z,19.17
2019-05-12T09:15:38.416Z,18.56
2019-05-12T09:17:13.886Z,18.43
2019-05-12T09:18:49.195Z,19.46
2019-05-12T09:20:24.217Z,18.33
2019-05-12T09:22:05.545Z,18.71
2019-05-12T09:23:41.041Z,19.12
2019-05-12T09:25:14.476Z,18.26
2019-05-12T09:26:49.337Z,17.09
2019-05-12T09:28:24.575Z,17.09
2019-05-12T09:30:08.058Z,17.50
2019-05-12T09:31:36.526Z,18.25
2019-05-12T09:33:11.288Z,18.02
2019-05-12T09:34:52.629Z,18.45
2019-05-12T09:36:24.344Z,16.74
2019-05-12T09:38:02.887Z,16.57
2019-05-12T09:39:42.442Z,16.85
2019-05-12T09:41:14.071Z,16.87
2019-05-12T09:42:48.983Z,16.20
2019-05-12T09:44:26.525Z,16.24
2019-05-12T09:46:00.591Z,16.83
2019-05-12T09:47:35.783Z,15.59
2019-05-12T09:49:10.411Z,17.89
2019-05-12T09:50:46.528Z,18.68
2019-05-12T09:52:23.214Z,18.43
2019-05-12T09:53:58.175Z,19.05
2019-05-12T09:55:34.302Z,19.06
2019-05-12T09:57:09.647Z,20.67
2019-05-12T09:58:57.263Z,17.92
2019-05-12T10:00:23.829Z,17.94
2019-05-12T10:01:57.952Z,18.53
2019-05-12T10:03:38.781Z,17.09
2019-05-12T10:05:09.889Z,19.67
2019-05-12T10:06:45.086Z,18.00
2019-05-12T10:08:19.787Z,17.31
2019-05-12T10:09:58.969Z,16.71
2019-05-12T10:11:31.377Z,18.18
2019-05-12T10:13:06.668Z,17.96
2019-05-12T10:14:45.863Z,18.56
2019-05-12T10:16:18.214Z,18.39
2019-05-12T10:17:54.027Z,18.38
2019-05-12T10:19:29.329Z,18.71
2019-05-12T10:21:04.174Z,20.37
2019-05-12T10:22:40.159Z,19.95
2019-05-12T10:24:15.200Z,18.62
2019-05-12T10:25:50.570Z,17.31
2019-05-12T10:27:30.106Z,17.13
2019-05-12T10:29:14.242Z,16.49
2019-05-12T10:30:38.530Z,16.30
2019-05-12T10:32:13.875Z,15.93
2019-05-12T10:33:48.880Z,17.27
2019-05-12T10:35:26.873Z,18.76
2019-05-12T10:37:03.764Z,18.48
2019-05-12T10:38:40.282Z,18.95
2019-05-12T10:40:15.697Z,19.24
2019-05-12T10:41:51.054Z,19.18
2019-05-12T10:43:25.787Z,19.01
2019-05-12T10:45:00.997Z,18.75
2019-05-12T10:46:35.713Z,18.14
2019-05-12T10:48:11.026Z,17.41
2019-05-12T10:49:45.671Z,16.66
2019-05-12T10:51:20.894Z,16.16
2019-05-12T10:52:55.638Z,15.99
2019-05-12T10:54:30.872Z,15.83
2019-05-12T10:56:05.555Z,16.44
2019-05-12T10:57:40.798Z,17.02
2019-05-12T10:59:29.108Z,17.10
2019-05-12T11:00:53.670Z,17.45
2019-05-12T11:02:30.465Z,17.66
2019-05-12T11:04:05.513Z,17.63
2019-05-12T11:05:41.195Z,17.80
2019-05-12T11:07:16.417Z,17.38
2019-05-12T11:08:51.358Z,16.99
2019-05-12T11:10:26.892Z,17.34
2019-05-12T11:12:03.468Z,16.35
2019-05-12T11:13:40.181Z,16.32
2019-05-12T11:15:15.417Z,16.30
2019-05-12T11:16:50.656Z,15.59
2019-05-12T11:18:30.325Z,15.56
2019-05-12T11:20:04.131Z,16.43
2019-05-12T11:21:38.587Z,16.24
2019-05-12T11:23:13.955Z,16.84
2019-05-12T11:24:48.629Z,16.91
2019-05-12T11:26:23.865Z,16.98
2019-05-12T11:27:58.579Z,16.95
2019-05-12T11:29:45.710Z,17.60
2019-05-12T11:31:10.275Z,17.30
2019-05-12T11:32:45.616Z,17.46
2019-05-12T11:34:20.307Z,16.65
2019-05-12T11:35:55.509Z,16.94
2019-05-12T11:37:41.561Z,16.15
2019-05-12T11:39:16.819Z,15.86
2019-05-12T11:40:53.705Z,15.04
2019-05-12T11:42:28.393Z,15.03
2019-05-12T11:44:03.970Z,14.67
2019-05-12T11:45:39.293Z,15.19
2019-05-12T11:47:23.554Z,15.14
2019-05-12T11:48:50.844Z,15.87
2019-05-12T11:50:25.573Z,16.31
2019-05-12T11:52:05.745Z,16.07
2019-05-12T11:53:37.175Z,16.65
2019-05-12T11:55:13.508Z,16.65
2019-05-12T11:56:50.355Z,16.98
2019-05-12T11:58:25.631Z,16.88
2019-05-12T12:00:02.274Z,17.38
2019-05-12T12:01:39.562Z,16.90
2019-05-12T12:03:17.977Z,16.71
2019-05-12T12:04:54.225Z,16.50
2019-05-12T12:06:27.964Z,17.27
2019-05-12T12:08:03.932Z,17.22
2019-05-12T12:09:38.809Z,16.53
2019-05-12T12:11:18.603Z,16.17
2019-05-12T12:12:50.411Z,16.15
2019-05-12T12:14:25.636Z,16.15
2019-05-12T12:16:05.577Z,16.32
2019-05-12T12:17:37.225Z,16.03
2019-05-12T12:19:11.903Z,16.14
2019-05-12T12:20:47.867Z,16.47
2019-05-12T12:22:28.092Z,16.38
2019-05-12T12:23:59.665Z,15.73
2019-05-12T12:25:34.530Z,15.85
2019-05-12T12:27:09.861Z,15.56
2019-05-12T12:28:44.527Z,15.30
2019-05-12T12:30:20.338Z,14.95
2019-05-12T12:31:55.872Z,14.85
2019-05-12T12:33:36.078Z,15.44
2019-05-12T12:35:11.911Z,16.30
2019-05-12T12:36:44.443Z,16.10
2019-05-12T12:38:19.065Z,15.63
2019-05-12T12:39:54.273Z,16.00
2019-05-12T12:41:28.941Z,16.00
2019-05-12T12:43:04.216Z,15.88
2019-05-12T12:44:39.816Z,16.59
2019-05-12T12:46:24.244Z,16.39
2019-05-12T12:47:58.601Z,16.14
2019-05-12T12:49:34.047Z,16.38
2019-05-12T12:51:09.103Z,16.69
2019-05-12T12:52:48.705Z,16.69
2019-05-12T12:54:20.738Z,16.64
2019-05-12T12:55:58.355Z,16.31
2019-05-12T12:57:33.494Z,15.77
2019-05-12T12:59:10.581Z,15.90
2019-05-12T13:00:48.003Z,15.69
2019-05-12T13:02:24.759Z,15.77
2019-05-12T13:04:04.444Z,15.80
2019-05-12T13:05:35.927Z,15.56
2019-05-12T13:07:10.927Z,15.42
2019-05-12T13:08:45.754Z,15.42
2019-05-12T13:10:20.862Z,15.53
2019-05-12T13:11:55.688Z,15.83
2019-05-12T13:13:30.737Z,15.69
2019-05-12T13:15:06.147Z,15.53
2019-05-12T13:16:43.667Z,15.65
2019-05-12T13:18:25.785Z,15.81
2019-05-12T13:19:58.706Z,16.08
2019-05-12T13:21:33.569Z,16.14
2019-05-12T13:23:08.814Z,16.14
2019-05-12T13:24:44.022Z,16.17
2019-05-12T13:26:19.170Z,15.94
2019-05-12T13:27:53.999Z,15.88
2019-05-12T13:29:35.442Z,15.71
2019-05-12T13:31:13.045Z,15.72
2019-05-12T13:32:44.136Z,15.84
2019-05-12T13:34:19.974Z,16.01
2019-05-12T13:35:57.497Z,16.52
2019-05-12T13:37:33.710Z,16.37
2019-05-12T13:39:11.470Z,16.37
2019-05-12T13:40:45.054Z,16.94
2019-05-12T13:42:20.093Z,16.49
2019-05-12T13:43:59.703Z,17.04
2019-05-12T13:45:33.562Z,17.04
2019-05-12T13:47:08.197Z,17.05
2019-05-12T13:48:43.449Z,16.82
2019-05-12T13:50:21.679Z,17.26
2019-05-12T13:51:55.042Z,17.58
2019-05-12T13:53:29.927Z,17.49
2019-05-12T13:55:07.522Z,17.56
2019-05-12T13:56:44.117Z,17.46
2019-05-12T13:58:18.502Z,16.72
2019-05-12T14:00:05.774Z,16.48
2019-05-12T14:01:31.965Z,16.18
2019-05-12T14:03:09.439Z,15.60
2019-05-12T14:04:44.409Z,15.21
2019-05-12T14:06:23.060Z,15.29
2019-05-12T14:07:57.421Z,15.41
2019-05-12T14:09:34.324Z,15.25
2019-05-12T14:11:09.181Z,14.92
2019-05-12T14:12:44.192Z,14.94
2019-05-12T14:14:19.304Z,15.13
2019-05-12T14:15:54.160Z,15.16
2019-05-12T14:17:31.116Z,15.16
2019-05-12T14:19:05.801Z,15.24
2019-05-12T14:20:44.891Z,15.43
2019-05-12T14:22:21.301Z,15.64
2019-05-12T14:23:54.044Z,15.26
2019-05-12T14:25:32.177Z,14.94
2019-05-12T14:27:05.666Z,15.01
2019-05-12T14:28:45.539Z,14.55
2019-05-12T14:30:17.225Z,14.55
2019-05-12T14:31:56.653Z,14.48
2019-05-12T14:33:37.921Z,14.89
2019-05-12T14:35:07.072Z,14.99
2019-05-12T14:36:43.376Z,15.18
2019-05-12T14:38:19.424Z,14.80
2019-05-12T14:39:55.005Z,14.55
2019-05-12T14:41:29.888Z,14.71
2019-05-12T14:43:04.920Z,14.47
2019-05-12T14:44:44.993Z,14.62
2019-05-12T14:46:16.503Z,14.57
2019-05-12T14:47:51.355Z,14.71
2019-05-12T14:49:30.377Z,14.82
2019-05-12T14:51:03.462Z,15.10
2019-05-12T14:52:38.581Z,15.31
2019-05-12T14:54:13.606Z,15.10
2019-05-12T14:55:48.776Z,15.26
2019-05-12T14:57:24.376Z,15.20
2019-05-12T14:59:00.884Z,15.36
2019-05-12T15:00:35.854Z,15.47
2019-05-12T15:02:10.908Z,15.59
2019-05-12T15:03:47.841Z,15.71
2019-05-12T15:05:25.306Z,16.09
2019-05-12T15:06:59.645Z,15.57
2019-05-12T15:08:39.995Z,15.46
2019-05-12T15:10:14.368Z,15.24
2019-05-12T15:11:49.276Z,15.35
2019-05-12T15:13:24.203Z,15.40
2019-05-12T15:14:59.293Z,15.75
2019-05-12T15:16:40.369Z,15.60
2019-05-12T15:18:13.150Z,15.75
2019-05-12T15:19:47.452Z,15.95
2019-05-12T15:21:27.302Z,15.90
2019-05-12T15:22:59.064Z,15.68
2019-05-12T15:24:34.432Z,15.69
2019-05-12T15:26:14.518Z,15.58
2019-05-12T15:27:48.490Z,15.35
2019-05-12T15:29:23.430Z,15.20
2019-05-12T15:31:00.505Z,15.03
2019-05-12T15:32:35.160Z,14.86
2019-05-12T15:34:10.131Z,15.02
2019-05-12T15:35:44.956Z,15.08
2019-05-12T15:37:19.981Z,14.88
2019-05-12T15:38:58.758Z,14.82
2019-05-12T15:40:31.601Z,14.71
2019-05-12T15:42:06.427Z,14.85
2019-05-12T15:43:44.189Z,15.00
2019-05-12T15:45:18.083Z,14.98
2019-05-12T15:46:53.573Z,15.19
2019-05-12T15:48:28.590Z,14.93
2019-05-12T15:50:04.137Z,14.76
2019-05-12T15:51:44.488Z,14.74
2019-05-12T15:53:21.963Z,14.78
2019-05-12T15:54:54.003Z,14.85
2019-05-12T15:56:29.079Z,14.72
2019-05-12T15:58:05.834Z,14.66
2019-05-12T15:59:40.773Z,14.64
2019-05-12T16:01:17.124Z,14.53
2019-05-12T16:02:53.416Z,14.43
2019-05-12T16:04:28.467Z,14.59
2019-05-12T16:06:10.218Z,14.60
2019-05-12T16:07:40.264Z,14.59
2019-05-12T16:09:15.353Z,14.45
2019-05-12T16:10:50.202Z,14.73
2019-05-12T16:12:26.848Z,14.58
2019-05-12T16:14:03.202Z,14.62
2019-05-12T16:15:39.232Z,14.59
2019-05-12T16:17:18.983Z,14.70
2019-05-12T16:18:50.856Z,14.53
2019-05-12T16:20:25.626Z,14.40
2019-05-12T16:22:00.724Z,14.32
2019-05-12T16:23:36.642Z,14.22
2019-05-12T16:25:14.844Z,14.03
2019-05-12T16:26:53.043Z,14.00
2019-05-12T16:28:26.683Z,13.92
2019-05-12T16:30:04.548Z,13.87
2019-05-12T16:31:39.451Z,13.96
2019-05-12T16:33:20.538Z,13.88
2019-05-12T16:34:53.762Z,13.78
2019-05-12T16:36:28.565Z,13.77
2019-05-12T16:38:13.887Z,13.73
2019-05-12T16:39:47.186Z,13.73
2019-05-12T16:41:19.928Z,13.50
2019-05-12T16:42:59.718Z,13.61
2019-05-12T16:44:31.599Z,13.49
2019-05-12T16:46:06.420Z,13.28
2019-05-12T16:47:41.464Z,13.28
2019-05-12T16:49:16.293Z,13.20
2019-05-12T16:50:51.376Z,13.20
2019-05-12T16:52:26.220Z,13.16
2019-05-12T16:54:03.484Z,13.18
2019-05-12T16:55:48.122Z,13.26
2019-05-12T16:57:18.201Z,13.20
2019-05-12T16:58:54.012Z,13.13
2019-05-12T17:00:30.986Z,13.19
2019-05-12T17:02:09.650Z,13.12
2019-05-12T17:03:41.456Z,13.14
2019-05-12T17:05:20.238Z,13.14
2019-05-12T17:06:53.188Z,13.02
2019-05-12T17:08:28.024Z,13.03
2019-05-12T17:10:11.573Z,12.96
2019-05-12T17:11:48.942Z,12.91
2019-05-12T17:13:16.434Z,12.91
2019-05-12T17:14:53.283Z,12.80
2019-05-12T17:16:28.002Z,12.80
2019-05-12T17:18:04.434Z,12.73
2019-05-12T17:19:39.700Z,12.73
2019-05-12T17:21:14.560Z,12.67
2019-05-12T17:22:54.544Z,12.67
2019-05-12T17:24:26.145Z,12.68
2019-05-12T17:26:03.619Z,12.68
2019-05-12T17:27:38.051Z,12.60
2019-05-12T17:29:13.892Z,12.60
2019-05-12T17:30:48.861Z,12.59
2019-05-12T17:32:23.991Z,12.58
2019-05-12T17:34:00.203Z,12.58
2019-05-12T17:35:35.604Z,12.55
2019-05-12T17:37:10.556Z,12.45
2019-05-12T17:38:45.597Z,12.45
2019-05-12T17:40:20.550Z,12.38
2019-05-12T17:41:55.706Z,12.26
2019-05-12T17:43:30.565Z,12.33
2019-05-12T17:45:09.390Z,12.33
2019-05-12T17:46:44.123Z,12.34
2019-05-12T17:48:19.328Z,12.29
2019-05-12T17:49:54.167Z,12.08
2019-05-12T17:51:30.865Z,12.08
2019-05-12T17:53:05.853Z,12.10
2019-05-12T17:54:43.231Z,12.10
2019-05-12T17:56:17.465Z,12.10
2019-05-12T17:57:56.413Z,12.00
2019-05-12T17:59:29.567Z,12.00
2019-05-12T18:01:04.840Z,11.93
2019-05-12T18:02:39.639Z,11.93
2019-05-12T18:04:14.707Z,11.88
2019-05-12T18:05:49.872Z,11.77
2019-05-12T18:07:24.962Z,11.85
2019-05-12T18:08:59.823Z,11.73
2019-05-12T18:10:37.842Z,11.73
2019-05-12T18:12:13.669Z,11.67
2019-05-12T18:13:48.121Z,11.67
2019-05-12T18:15:32.162Z,11.67
2019-05-12T18:17:08.468Z,11.58
2019-05-12T18:18:38.275Z,11.50
2019-05-12T18:20:14.416Z,11.50
2019-05-12T18:21:54.799Z,11.53
2019-05-12T18:23:30.324Z,11.53
2019-05-12T18:25:04.324Z,11.45
2019-05-12T18:26:39.709Z,11.29
2019-05-12T18:28:14.664Z,11.36
2019-05-12T18:29:49.779Z,11.26
2019-05-12T18:31:25.351Z,11.26
2019-05-12T18:33:04.291Z,11.19
2019-05-12T18:34:37.202Z,11.16
2019-05-12T18:36:14.346Z,11.06
2019-05-12T18:37:48.755Z,11.00
2019-05-12T18:39:24.394Z,11.00
2019-05-12T18:41:00.479Z,10.92
2019-05-12T18:42:35.558Z,10.88
2019-05-12T18:44:15.933Z,10.81
2019-05-12T18:45:48.784Z,10.81
2019-05-12T18:47:31.790Z,10.74
2019-05-12T18:49:11.848Z,10.77
2019-05-12T18:50:37.385Z,10.68
2019-05-12T18:52:14.650Z,10.68
2019-05-12T18:53:49.660Z,10.59
2019-05-12T18:55:29.296Z,10.61
2019-05-12T18:57:04.851Z,10.53
2019-05-12T18:58:37.981Z,10.54
2019-05-12T19:00:17.313Z,10.47
2019-05-12T19:01:54.116Z,10.52
2019-05-12T19:03:29.208Z,10.42
2019-05-12T19:05:04.816Z,10.31
2019-05-12T19:06:40.869Z,10.32
2019-05-12T19:08:15.906Z,10.27
2019-05-12T19:09:50.743Z,10.24
2019-05-12T19:11:37.399Z,10.13
2019-05-12T19:13:06.515Z,10.11
2019-05-12T19:14:40.518Z,10.10
2019-05-12T19:16:15.783Z,10.09
2019-05-12T19:17:50.823Z,10.09
2019-05-12T19:19:25.641Z,9.86
2019-05-12T19:21:00.665Z,9.90
2019-05-12T19:22:39.289Z,9.90
2019-05-12T19:24:15.202Z,9.88
2019-05-12T19:25:50.356Z,9.89
2019-05-12T19:27:25.460Z,9.88
2019-05-12T19:29:00.408Z,9.82
2019-05-12T19:30:36.823Z,9.80
2019-05-12T19:32:13.731Z,9.69
2019-05-12T19:33:53.353Z,9.68
2019-05-12T19:35:24.933Z,9.62
2019-05-12T19:36:59.948Z,9.59
2019-05-12T19:38:34.777Z,9.55
2019-05-12T19:40:14.072Z,9.57
2019-05-12T19:41:46.970Z,9.34
2019-05-12T19:43:23.726Z,9.50
2019-05-12T19:45:00.107Z,9.40
2019-05-12T19:46:39.709Z,9.41
2019-05-12T19:48:23.272Z,9.41
2019-05-12T19:49:50.665Z,9.36
2019-05-12T19:51:28.182Z,9.27
2019-05-12T19:53:03.999Z,9.24
2019-05-12T19:54:38.904Z,9.29
2019-05-12T19:56:14.355Z,9.10
2019-05-12T19:57:50.196Z,9.08
2019-05-12T19:59:25.643Z,9.15
2019-05-12T20:01:00.752Z,9.09
2019-05-12T20:02:35.971Z,9.15
2019-05-12T20:04:11.133Z,9.04
2019-05-12T20:05:46.425Z,9.07
2019-05-12T20:07:23.349Z,8.96
2019-05-12T20:09:06.088Z,8.99
2019-05-12T20:10:38.059Z,8.93
2019-05-12T20:12:18.511Z,8.87
2019-05-12T20:13:48.822Z,8.93
2019-05-12T20:15:24.286Z,8.81
2019-05-12T20:16:59.382Z,8.82
2019-05-12T20:18:42.658Z,8.82
2019-05-12T20:20:13.702Z,8.71
2019-05-12T20:21:49.269Z,8.68
2019-05-12T20:23:24.647Z,8.66
2019-05-12T20:24:59.878Z,8.70
2019-05-12T20:26:38.267Z,8.63
2019-05-12T20:28:14.563Z,8.55
2019-05-12T20:29:49.628Z,8.52
2019-05-12T20:31:27.204Z,8.50
2019-05-12T20:33:01.289Z,8.46
2019-05-12T20:34:48.068Z,8.45
2019-05-12T20:36:14.236Z,8.54
2019-05-12T20:37:52.911Z,8.38
2019-05-12T20:39:25.959Z,8.36
2019-05-12T20:41:00.971Z,8.29
2019-05-12T20:42:42.247Z,8.27
2019-05-12T20:44:17.192Z,8.36
2019-05-12T20:45:50.196Z,8.28
2019-05-12T20:47:25.244Z,8.30
2019-05-12T20:49:01.088Z,8.25